M I D A S
Marine Information and Data Acquisition System
Tripno 388 of the Zeeleeuw from 2002-09-30 08:13:18 to 2002-09-30 14:28:29
Back to CruiseResearch ActivitiesStationsMapUnderway DataData graphs

EquipmentUnitsComment
TimeDGPSUTC
LatitudeDGPSDM.mWGS84
LongitudeDGPSDM.mWGS84
TemperatureSBE03/SBE38deg celciusITS90
ConductivitySBE21S/mITS90
SalinitySBE21 Practical Salinity Units
ChlorophylAChelsea fluorimeterg/lCalibrated in Aceton
Missing or incorrect values are displayed as -999
Sea surface data collected by the RV Zeeleeuw from 2002-09-30 08:13:18 to 2002-09-30 14:28:29
                                                                                    Next 1000 lines
Time Latitude Longitude Temperature Conductivity Salinity ChlorophylA
2002-09-30 08:13:29 51°13.664 2°55.947 20.771724 0.075996 0.398618  
2002-09-30 08:13:33 51°13.663 2°55.949 20.761037 0.075996 0.398636  
2002-09-30 08:13:39 51°13.659 2°55.953 20.758355 0.075996 0.398648  
2002-09-30 08:13:43 51°13.657 2°55.957 20.758355 0.075996 0.398648  
2002-09-30 08:13:50 51°13.652 2°55.963 20.756673 0.075996 0.398666  
2002-09-30 08:13:53 51°13.649 2°55.967 20.756553 0.075996 0.398691  
2002-09-30 08:14:02 51°13.642 2°55.977 20.757434 0.075996 0.398703  
2002-09-30 08:14:06 51°13.638 2°55.982 20.759356 0.075996 0.398721  
2002-09-30 08:14:10 51°13.635 2°55.987 20.766521 0.075996 0.398739  
2002-09-30 08:14:17 51°13.63 2°55.995 20.771924 0.075996 0.398758  
2002-09-30 08:14:22 51°13.626 2°56.002 20.774926 0.075996 0.398776  
2002-09-30 08:14:27 51°13.622 2°56.008 20.774926 0.075996 0.398776  
2002-09-30 08:14:32 51°13.618 2°56.014 20.777448 0.075996 0.398788  
2002-09-30 08:14:37 51°13.614 2°56.02 23.985244 0.075996 0.3988  
2002-09-30 08:14:46 51°13.608 2°56.031 35.834301 0.047092 0.242064  
2002-09-30 08:14:51 51°13.604 2°56.037 35.834301 0.047092 0.242064  
2002-09-30 08:14:55 51°13.601 2°56.042 35.127675 0.039191 0.199744  
2002-09-30 08:14:58 51°13.599 2°56.046 36.163803 0.010714 0.057145  
2002-09-30 08:15:06 51°13.593 2°56.057 35.466575 0.00105 0.013602  
2002-09-30 08:15:11 51°13.59 2°56.063 35.379995 0.000738 0.012464  
2002-09-30 08:15:16 51°13.586 2°56.07 20.678725 0.00105 0.013557  
2002-09-30 08:15:21 51°13.583 2°56.077 20.678725 0.00105 0.013557  
2002-09-30 08:15:26 51°13.579 2°56.084 19.141241 0.067262 0.352509  
2002-09-30 08:15:30 51°13.576 2°56.09 18.832965 0.278751 1.572876  
2002-09-30 08:15:36 51°13.572 2°56.099 17.725622 1.414607 8.603641  
2002-09-30 08:15:41 51°13.569 2°56.107 17.316298 1.875353 11.430691  
2002-09-30 08:15:46 51°13.566 2°56.114 17.044551 2.947593 19.308713  
2002-09-30 08:15:51 51°13.563 2°56.122 17.044551 2.947593 19.308713  
2002-09-30 08:15:55 51°13.56 2°56.129 16.984233 3.049907 20.481376  
2002-09-30 08:16:01 51°13.557 2°56.138 16.821981 3.2031 22.298482  
2002-09-30 08:16:06 51°13.553 2°56.146 16.848111 3.335372 23.697988  
2002-09-30 08:16:09 51°13.552 2°56.151 16.882442 3.265348 23.589543  
2002-09-30 08:16:14 51°13.549 2°56.16 16.739333 3.301897 24.273065  
2002-09-30 08:16:21 51°13.545 2°56.172 16.739333 3.301897 24.273065  
2002-09-30 08:16:26 51°13.543 2°56.181 16.748578 3.267675 24.164992  
2002-09-30 08:16:31 51°13.541 2°56.19 16.544399 3.253778 24.23224  
2002-09-30 08:16:35 51°13.541 2°56.197 16.557199 3.207658 23.961417  
2002-09-30 08:16:40 51°13.54 2°56.206 16.504154 3.204395 24.00966  
2002-09-30 08:16:46 51°13.541 2°56.216 16.590103 3.185023 23.910662  
2002-09-30 08:16:51 51°13.542 2°56.224 16.590103 3.185023 23.910662  
2002-09-30 08:16:56 51°13.542 2°56.231 16.612115 3.163018 23.77036  
2002-09-30 08:16:58 51°13.543 2°56.234 16.386091 3.150068 23.698868  
2002-09-30 08:17:06 51°13.545 2°56.244 16.244974 3.129118 23.554269  
2002-09-30 08:17:09 51°13.546 2°56.248 16.45358 3.12417 23.542056  
2002-09-30 08:17:16 51°13.548 2°56.256 16.520578 3.101641 23.383123  
2002-09-30 08:17:21 51°13.549 2°56.26 16.520578 3.101641 23.383123  
2002-09-30 08:17:26 51°13.551 2°56.264 16.402927 3.072166 23.157274  
2002-09-30 08:17:29 51°13.552 2°56.266 16.358974 3.041534 22.921762  
2002-09-30 08:17:34 51°13.553 2°56.269 16.555668 3.002062 22.623225  
2002-09-30 08:17:41 51°13.555 2°56.272 16.273502 2.966488 22.346955  
2002-09-30 08:17:46 51°13.556 2°56.274 16.296769 2.93923 22.134354  
2002-09-30 08:17:49 51°13.556 2°56.275 16.514026 2.91029 21.904188  
2002-09-30 08:17:55 51°13.557 2°56.276 16.514026 2.91029 21.904188  
2002-09-30 08:18:01 51°13.558 2°56.277 16.542868 2.890506 21.750761  
2002-09-30 08:18:06 51°13.559 2°56.277 16.244248 2.873775 21.621809  
2002-09-30 08:18:11 51°13.559 2°56.277 16.245444 2.861043 21.525955  
2002-09-30 08:18:15 51°13.559 2°56.277 16.206647 2.851994 21.455014  
2002-09-30 08:18:21 51°13.558 2°56.276 16.206647 2.851994 21.455014  
2002-09-30 08:18:26 51°13.557 2°56.275 16.358078 2.841787 21.374106  
2002-09-30 08:18:31 51°13.556 2°56.274 16.259026 2.83358 21.309752  
2002-09-30 08:18:36 51°13.555 2°56.273 16.144474 2.802647 21.060635  
2002-09-30 08:18:42 51°13.553 2°56.271 16.343961 2.822428 21.234783  
2002-09-30 08:18:46 51°13.552 2°56.27 16.259752 2.822112 21.240034  
2002-09-30 08:18:51 51°13.55 2°56.269 16.259752 2.822112 21.240034  
2002-09-30 08:18:57 51°13.548 2°56.267 16.304025 2.826531 21.277411  
2002-09-30 08:19:02 51°13.546 2°56.266 16.493515 2.826426 21.274963  
2002-09-30 08:19:06 51°13.545 2°56.265 16.133394 2.823796 21.252397  
2002-09-30 08:19:12 51°13.543 2°56.264 16.336283 2.82106 21.23329  
2002-09-30 08:19:17 51°13.542 2°56.264 16.230492 2.817167 21.20499  
2002-09-30 08:19:20 51°13.542 2°56.263 16.230492 2.817167 21.20499  
2002-09-30 08:19:26 51°13.541 2°56.263 16.162568 2.829057 21.309373  
2002-09-30 08:19:31 51°13.542 2°56.263 16.311152 2.857361 21.546453  
2002-09-30 08:19:36 51°13.542 2°56.263 16.165005 2.885246 21.779194  
2002-09-30 08:19:41 51°13.543 2°56.263 16.198355 2.918289 22.054356  
2002-09-30 08:19:46 51°13.544 2°56.263 16.390694 3.04301 23.096828  
2002-09-30 08:19:51 51°13.545 2°56.263 16.390694 3.04301 23.096828  
2002-09-30 08:19:56 51°13.546 2°56.263 16.349975 3.127227 23.802913  
2002-09-30 08:20:01 51°13.547 2°56.263 16.315761 3.178712 24.236299  
2002-09-30 08:20:06 51°13.547 2°56.263 16.285457 3.188925 24.322751  
2002-09-30 08:20:10 51°13.548 2°56.263 16.355989 3.200823 24.419818  
2002-09-30 08:20:14 51°13.548 2°56.263 16.466142 3.197875 24.395883  
2002-09-30 08:20:21 51°13.549 2°56.264 16.466142 3.197875 24.395883  
2002-09-30 08:20:25 51°13.548 2°56.264 16.170009 3.181449 24.257096  
2002-09-30 08:20:29 51°13.548 2°56.264 16.355008 3.161655 24.089628  
2002-09-30 08:20:34 51°13.548 2°56.264 16.373301 3.14523 23.950637  
2002-09-30 08:20:41 51°13.547 2°56.264 16.399901 3.133333 23.849343  
2002-09-30 08:20:46 51°13.545 2°56.265 16.259581 3.127017 23.796288  
2002-09-30 08:20:49 51°13.545 2°56.265 16.259581 3.127017 23.796288  
2002-09-30 08:20:54 51°13.543 2°56.265 16.295488 3.123648 23.76888  
2002-09-30 08:21:02 51°13.541 2°56.265 16.232756 3.121753 23.752087  
2002-09-30 08:21:07 51°13.539 2°56.265 16.184889 3.121332 23.749432  
2002-09-30 08:21:11 51°13.537 2°56.265 16.226689 3.120068 23.739706  
2002-09-30 08:21:17 51°13.535 2°56.265 16.225706 3.118279 23.727762  
2002-09-30 08:21:22 51°13.533 2°56.265 16.299714 3.118279 23.730404  
2002-09-30 08:21:27 51°13.532 2°56.265 16.299714 3.118279 23.730404  
2002-09-30 08:21:31 51°13.531 2°56.265 16.336368 3.127122 23.804679  
2002-09-30 08:21:35 51°13.53 2°56.265 16.168213 3.165445 24.127332  
2002-09-30 08:21:42 51°13.529 2°56.264 16.287848 3.196717 24.393369  
2002-09-30 08:21:46 51°13.529 2°56.264 16.284133 3.231254 24.685097  
2002-09-30 08:21:51 51°13.528 2°56.264 16.284133 3.231254 24.685097  
2002-09-30 08:21:55 51°13.529 2°56.263 16.324209 3.269374 25.007091  
2002-09-30 08:22:01 51°13.529 2°56.263 16.232372 3.323399 25.463394  
2002-09-30 08:22:06 51°13.53 2°56.262 16.328518 3.36142 25.784851  
2002-09-30 08:22:11 51°13.53 2°56.261 16.182238 3.396073 26.076726  
2002-09-30 08:22:16 51°13.532 2°56.261 16.26919 3.416824 26.250707  
2002-09-30 08:22:21 51°13.533 2°56.26 16.26919 3.416824 26.250707  
2002-09-30 08:22:26 51°13.534 2°56.259 16.225023 3.427884 26.342837  
2002-09-30 08:22:32 51°13.535 2°56.258 16.161541 3.437364 26.421551  
2002-09-30 08:22:36 51°13.535 2°56.258 16.261546 3.442315 26.461727  
2002-09-30 08:22:40 51°13.536 2°56.258 16.260948 3.441367 26.452674  
2002-09-30 08:22:47 51°13.536 2°56.258 16.25531 3.406185 26.161705  
2002-09-30 08:22:52 51°13.535 2°56.259 16.25531 3.406185 26.161705  
2002-09-30 08:22:54 51°13.535 2°56.259 16.319558 3.374375 25.893862  
2002-09-30 08:23:02 51°13.533 2°56.261 16.250313 3.355417 25.739168  
2002-09-30 08:23:07 51°13.532 2°56.261 16.218656 3.349308 25.68829  
2002-09-30 08:23:11 51°13.532 2°56.262 16.251808 3.343832 25.645165  
2002-09-30 08:23:19 51°13.531 2°56.262 16.222672 3.341409 25.626521  
2002-09-30 08:23:23 51°13.531 2°56.262 16.363195 3.341515 25.631701  
2002-09-30 08:23:28 51°13.53 2°56.261 16.363195 3.341515 25.631701  
2002-09-30 08:23:34 51°13.531 2°56.259 16.434755 3.344042 25.655056  
2002-09-30 08:23:39 51°13.531 2°56.257 16.296598 3.347623 25.686402  
2002-09-30 08:23:44 51°13.533 2°56.256 16.332486 3.351415 25.719065  
2002-09-30 08:23:49 51°13.534 2°56.254 16.371809 3.376272 25.929709  
2002-09-30 08:23:51 51°13.534 2°56.253 16.340421 3.402183 26.14808  
2002-09-30 08:23:57 51°13.535 2°56.251 16.340421 3.402183 26.14808  
2002-09-30 08:24:03 51°13.537 2°56.247 16.231773 3.430202 26.386081  
2002-09-30 08:24:08 51°13.538 2°56.244 16.477339 3.451059 26.56478  
2002-09-30 08:24:12 51°13.539 2°56.241 16.16894 3.466018 26.690349  
2002-09-30 08:24:18 51°13.541 2°56.235 16.229423 3.472128 26.742469  
2002-09-30 08:24:22 51°13.542 2°56.231 16.261845 3.479818 26.806592  
2002-09-30 08:24:28 51°13.543 2°56.224 16.340378 3.482241 26.826273  
2002-09-30 08:24:33 51°13.545 2°56.218 16.340378 3.482241 26.826273  
2002-09-30 08:24:38 51°13.546 2°56.212 16.233568 3.479607 26.803798  
2002-09-30 08:24:42 51°13.547 2°56.207 16.166117 3.474972 26.763253  
2002-09-30 08:24:45 51°13.548 2°56.202 16.308165 3.475815 26.770443  
2002-09-30 08:24:51 51°13.55 2°56.193 16.376115 3.477816 26.788516  
2002-09-30 08:24:54 51°13.551 2°56.189 16.266072 3.480555 26.813384  
2002-09-30 08:25:03 51°13.554 2°56.175 16.266072 3.480555 26.813384  
2002-09-30 08:25:08 51°13.556 2°56.167 16.403779 3.489299 26.886018  
2002-09-30 08:25:11 51°13.557 2°56.162 16.261161 3.499518 26.97327  
2002-09-30 08:25:17 51°13.559 2°56.152 16.228654 3.510685 27.068663  
2002-09-30 08:25:23 51°13.562 2°56.142 16.257019 3.516058 27.114071  
2002-09-30 08:25:27 51°13.564 2°56.135 16.257019 3.516058 27.114071  
2002-09-30 08:25:33 51°13.567 2°56.125 16.290494 3.510896 27.06996  
2002-09-30 08:25:37 51°13.569 2°56.118 16.25121 3.495936 26.943184  
2002-09-30 08:25:42 51°13.571 2°56.108 16.283621 3.47592 26.774826  
2002-09-30 08:25:46 51°13.573 2°56.101 16.354709 3.458433 26.627154  
2002-09-30 08:25:51 51°13.576 2°56.091 16.281615 3.439893 26.469618  
2002-09-30 08:25:58 51°13.58 2°56.079 16.281615 3.439893 26.469618  
2002-09-30 08:26:03 51°13.582 2°56.069 16.246683 3.418404 26.289051  
2002-09-30 08:26:08 51°13.585 2°56.06 16.286738 3.400708 26.140395  
2002-09-30 08:26:13 51°13.588 2°56.05 16.3231 3.38059 25.971722  
2002-09-30 08:26:17 51°13.591 2°56.042 16.388776 3.367319 25.859411  
2002-09-30 08:26:23 51°13.595 2°56.031 16.323569 3.358261 25.783902  
2002-09-30 08:26:27 51°13.597 2°56.023 16.323569 3.358261 25.783902  
2002-09-30 08:26:32 51°13.601 2°56.014 16.180228 3.357629 25.779013  
2002-09-30 08:26:37 51°13.604 2°56.004 16.285158 3.362263 25.819341  
2002-09-30 08:26:43 51°13.608 2°55.993 16.423039 3.367424 25.862711  
2002-09-30 08:26:48 51°13.612 2°55.983 16.176979 3.373639 25.91456  
2002-09-30 08:26:52 51°13.615 2°55.976 16.210408 3.380169 25.970555  
2002-09-30 08:26:57 51°13.619 2°55.966 16.210408 3.380169 25.970555  
2002-09-30 08:27:02 51°13.623 2°55.956 16.182024 3.387015 26.02974  
2002-09-30 08:27:06 51°13.626 2°55.948 16.138442 3.393335 26.083011  
2002-09-30 08:27:11 51°13.63 2°55.939 16.346392 3.398918 26.130993  
2002-09-30 08:27:18 51°13.635 2°55.925 16.277132 3.403868 26.173609  
2002-09-30 08:27:22 51°13.638 2°55.917 16.206134 3.40113 26.150788  
2002-09-30 08:27:26 51°13.641 2°55.909 16.206134 3.40113 26.150788  
2002-09-30 08:27:31 51°13.645 2°55.899 16.240702 3.393019 26.082263  
2002-09-30 08:27:37 51°13.649 2°55.887 16.135918 3.392809 26.080956  
2002-09-30 08:27:42 51°13.653 2°55.877 16.166203 3.40292 26.167975  
2002-09-30 08:27:46 51°13.656 2°55.869 16.233568 3.411242 26.240279  
2002-09-30 08:27:51 51°13.66 2°55.86 16.303726 3.412611 26.253404  
2002-09-30 08:27:57 51°13.665 2°55.848 16.267738 3.414928 26.273628  
2002-09-30 08:28:03 51°13.67 2°55.836 16.267738 3.414928 26.273628  
2002-09-30 08:28:07 51°13.673 2°55.828 16.089653 3.413559 26.262943  
2002-09-30 08:28:11 51°13.677 2°55.82 16.402799 3.425357 26.363936  
2002-09-30 08:28:16 51°13.681 2°55.81 16.30061 3.425146 26.364103  
2002-09-30 08:28:21 51°13.685 2°55.801 16.127575 3.431256 26.418632  
2002-09-30 08:28:28 51°13.691 2°55.787 16.228825 3.420301 26.325266  
2002-09-30 08:28:31 51°13.694 2°55.782 16.228825 3.420301 26.325266  
2002-09-30 08:28:38 51°13.701 2°55.769 16.19314 3.427885 26.391373  
2002-09-30 08:28:43 51°13.706 2°55.761 16.053937 3.425778 26.373907  
2002-09-30 08:28:46 51°13.709 2°55.756 16.257403 3.434627 26.450816  
2002-09-30 08:28:52 51°13.715 2°55.746 16.325703 3.437892 26.47817  
2002-09-30 08:28:58 51°13.722 2°55.736 16.182537 3.448847 26.57162  
2002-09-30 08:29:02 51°13.726 2°55.73 16.182537 3.448847 26.57162  
2002-09-30 08:29:07 51°13.732 2°55.722 16.250185 3.461488 26.680495  
2002-09-30 08:29:10 51°13.735 2°55.717 16.139982 3.468968 26.743858  
2002-09-30 08:29:17 51°13.743 2°55.707 16.246469 3.473603 26.786436  
2002-09-30 08:29:22 51°13.749 2°55.7 16.315974 3.480345 26.845035  
2002-09-30 08:29:27 51°13.755 2°55.693 16.315974 3.480345 26.845035  
2002-09-30 08:29:32 51°13.761 2°55.686 16.102495 3.492671 26.950884  
2002-09-30 08:29:34 51°13.764 2°55.683 16.205365 3.497096 26.991229  
2002-09-30 08:29:42 51°13.774 2°55.674 16.238096 3.502258 27.037394  
2002-09-30 08:29:46 51°13.779 2°55.669 16.129329 3.508579 27.092482  
2002-09-30 08:29:49 51°13.784 2°55.666 16.336539 3.514057 27.141387  
2002-09-30 08:29:57 51°13.795 2°55.657 16.336539 3.514057 27.141387  
2002-09-30 08:30:07 51°13.81 2°55.647 16.122654 3.51627 27.162855  
2002-09-30 08:30:11 51°13.815 2°55.643 16.084558 3.509843 27.108856  
2002-09-30 08:30:17 51°13.824 2°55.636 16.1535 3.50152 27.040657  
2002-09-30 08:30:22 51°13.832 2°55.63 16.185744 3.488773 26.931607  
2002-09-30 08:30:27 51°13.839 2°55.625 16.185744 3.488773 26.931607  
2002-09-30 08:30:32 51°13.847 2°55.619 16.111826 3.478133 26.843631  
2002-09-30 08:30:37 51°13.854 2°55.613 16.286951 3.47255 26.7964  
2002-09-30 08:30:42 51°13.862 2°55.607 16.182323 3.471075 26.78679  
2002-09-30 08:30:47 51°13.87 2°55.601 16.28123 3.471497 26.792889  
2002-09-30 08:30:52 51°13.878 2°55.596 16.069485 3.476764 26.838425  
2002-09-30 08:31:02 51°13.893 2°55.584 16.103523 3.485613 26.916117  
2002-09-30 08:31:07 51°13.902 2°55.578 16.13288 3.485086 26.913116  
2002-09-30 08:31:12 51°13.91 2°55.572 16.128516 3.501099 27.049654  
2002-09-30 08:31:17 51°13.917 2°55.565 16.372789 3.508052 27.11121  
2002-09-30 08:31:23 51°13.927 2°55.558 16.333126 3.517429 27.194061  
2002-09-30 08:31:26 51°13.932 2°55.554 16.333126 3.517429 27.194061  
2002-09-30 08:31:30 51°13.938 2°55.549 16.195533 3.52375 27.249247  
2002-09-30 08:31:37 51°13.95 2°55.541 16.228355 3.529018 27.294909  
2002-09-30 08:31:42 51°13.958 2°55.534 16.264065 3.534391 27.344548  
2002-09-30 08:31:46 51°13.964 2°55.529 16.161841 3.537868 27.375388  
2002-09-30 08:31:52 51°13.974 2°55.522 16.05852 3.539132 27.390833  
2002-09-30 08:31:57 51°13.983 2°55.516 16.16462 3.54145 27.411231  
2002-09-30 08:32:02 51°13.991 2°55.51 16.16462 3.54145 27.411231  
2002-09-30 08:32:05 51°13.996 2°55.506 16.164578 3.544927 27.44209  
2002-09-30 08:32:09 51°14.002 2°55.501 16.097958 3.553355 27.514951  
2002-09-30 08:32:17 51°14.016 2°55.492 16.205536 3.564313 27.608528  
2002-09-30 08:32:22 51°14.024 2°55.486 16.207758 3.576113 27.707838  
2002-09-30 08:32:26 51°14.031 2°55.481 16.207758 3.576113 27.707838  
2002-09-30 08:32:31 51°14.039 2°55.475 16.102367 3.590127 27.827764  
2002-09-30 08:32:35 51°14.046 2°55.47 16.209468 3.603298 27.939464  
2002-09-30 08:32:42 51°14.057 2°55.462 16.170308 3.617522 28.061331  
2002-09-30 08:32:46 51°14.064 2°55.457 16.102709 3.627954 28.150605  
2002-09-30 08:32:51 51°14.072 2°55.452 16.137929 3.634487 28.203704  
2002-09-30 08:32:57 51°14.082 2°55.444 16.137929 3.634487 28.203704  
2002-09-30 08:33:02 51°14.091 2°55.438 16.172574 3.639334 28.244922  
2002-09-30 08:33:07 51°14.1 2°55.432 16.13917 3.642179 28.2689  
2002-09-30 08:33:11 51°14.106 2°55.427 16.171548 3.644287 28.289166  
2002-09-30 08:33:17 51°14.117 2°55.42 16.027074 3.645446 28.297568  
2002-09-30 08:33:22 51°14.125 2°55.413 16.233055 3.644498 28.290454  
2002-09-30 08:33:27 51°14.134 2°55.406 16.233055 3.644498 28.290454  
2002-09-30 08:33:31 51°14.14 2°55.401 16.229295 3.641442 28.263074  
2002-09-30 08:33:37 51°14.151 2°55.392 16.26556 3.636805 28.223668  
2002-09-30 08:33:42 51°14.159 2°55.385 16.023731 3.630694 28.17104  
2002-09-30 08:33:47 51°14.168 2°55.378 16.160344 3.622896 28.102866  
2002-09-30 08:33:52 51°14.177 2°55.37 16.300525 3.613202 28.023107  
2002-09-30 08:33:57 51°14.186 2°55.362 16.300525 3.613202 28.023107  
2002-09-30 08:34:02 51°14.195 2°55.353 16.229765 3.602455 27.933778  
2002-09-30 08:34:07 51°14.204 2°55.344 16.194037 3.595711 27.877341  
2002-09-30 08:34:11 51°14.211 2°55.336 16.016788 3.59097 27.838129  
2002-09-30 08:34:17 51°14.222 2°55.323 16.226689 3.591707 27.843431  
2002-09-30 08:34:22 51°14.23 2°55.312 16.153457 3.593393 27.858968  
2002-09-30 08:34:26 51°14.237 2°55.303 16.153457 3.593393 27.858968  
2002-09-30 08:34:31 51°14.245 2°55.291 16.150463 3.595817 27.879288  
2002-09-30 08:34:37 51°14.255 2°55.276 16.215408 3.598451 27.904027  
2002-09-30 08:34:42 51°14.263 2°55.263 16.283322 3.602139 27.936795  
2002-09-30 08:34:46 51°14.269 2°55.252 16.214639 3.607196 27.980313  
2002-09-30 08:34:52 51°14.278 2°55.236 16.036543 3.609304 28.000016  
2002-09-30 08:34:56 51°14.284 2°55.224 16.10455 3.609725 28.005735  
2002-09-30 08:35:03 51°14.294 2°55.204 16.10455 3.609725 28.005735  
2002-09-30 08:35:07 51°14.3 2°55.192 16.072097 3.608566 27.996805  
2002-09-30 08:35:13 51°14.308 2°55.173 16.179715 3.606564 27.981664  
2002-09-30 08:35:17 51°14.313 2°55.161 16.215835 3.604457 27.965616  
2002-09-30 08:35:22 51°14.32 2°55.146 16.041728 3.60235 27.949567  
2002-09-30 08:35:27 51°14.327 2°55.13 16.108402 3.603193 27.9563  
2002-09-30 08:35:31 51°14.332 2°55.118 16.108402 3.603193 27.9563  
2002-09-30 08:35:34 51°14.336 2°55.109 16.31815 3.605616 27.977682  
2002-09-30 08:35:42 51°14.347 2°55.083 16.06957 3.601612 27.942697  
2002-09-30 08:35:47 51°14.353 2°55.066 16.141651 3.612044 28.031971  
2002-09-30 08:35:51 51°14.359 2°55.053 16.10532 3.613835 28.047918  
2002-09-30 08:35:57 51°14.368 2°55.033 16.035644 3.617101 28.074998  
2002-09-30 08:36:01 51°14.373 2°55.019 16.035644 3.617101 28.074998  
2002-09-30 08:36:07 51°14.382 2°54.998 16.139127 3.621632 28.115071  
2002-09-30 08:36:13 51°14.392 2°54.976 16.180613 3.621948 28.116743  
2002-09-30 08:36:17 51°14.398 2°54.961 16.10241 3.627217 28.162128  
2002-09-30 08:36:22 51°14.406 2°54.942 16.037572 3.632275 28.206762  
2002-09-30 08:36:25 51°14.41 2°54.93 16.037572 3.632275 28.206762  
2002-09-30 08:36:31 51°14.419 2°54.907 16.131597 3.63944 28.265877  
2002-09-30 08:36:34 51°14.423 2°54.894 16.193311 3.648924 28.338107  
2002-09-30 08:36:43 51°14.434 2°54.856 16.154997 3.660409 28.378852  
2002-09-30 08:36:47 51°14.438 2°54.839 15.938097 3.677059 28.533349  
2002-09-30 08:36:51 51°14.442 2°54.821 16.110885 3.688124 28.656474  
2002-09-30 08:36:57 51°14.446 2°54.794 16.110885 3.688124 28.656474  
2002-09-30 08:37:03 51°14.45 2°54.766 16.283963 3.703616 28.80791  
2002-09-30 08:37:07 51°14.453 2°54.748 16.179544 3.721216 28.973524  
2002-09-30 08:37:13 51°14.455 2°54.72 16.069956 3.736286 29.113699  
2002-09-30 08:37:17 51°14.456 2°54.701 16.105534 3.75062 29.242192  
2002-09-30 08:37:22 51°14.457 2°54.678 16.104636 3.765796 29.37811  
2002-09-30 08:37:25 51°14.457 2°54.663 16.104636 3.765796 29.37811  
2002-09-30 08:37:31 51°14.458 2°54.635 16.100997 3.779182 29.497504  
2002-09-30 08:37:34 51°14.458 2°54.621 15.994541 3.787086 29.568309  
2002-09-30 08:37:42 51°14.459 2°54.583 15.994712 3.795308 29.640229  
2002-09-30 08:37:47 51°14.459 2°54.559 16.027759 3.800367 29.688603  
2002-09-30 08:37:51 51°14.458 2°54.54 16.06563 3.806164 29.738403  
2002-09-30 08:37:57 51°14.457 2°54.512 16.06563 3.806164 29.738403  
2002-09-30 08:38:02 51°14.454 2°54.489 16.028788 3.811012 29.782757  
2002-09-30 08:38:06 51°14.45 2°54.471 16.096031 3.817969 29.842658  
2002-09-30 08:38:12 51°14.445 2°54.444 16.130784 3.823134 29.888674  
2002-09-30 08:38:17 51°14.439 2°54.423 16.162183 3.829669 29.947741  
2002-09-30 08:38:21 51°14.433 2°54.405 16.164663 3.83399 29.984769  
2002-09-30 08:38:27 51°14.425 2°54.379 16.164663 3.83399 29.984769  
2002-09-30 08:38:33 51°14.416 2°54.353 16.33607 3.837469 30.017276  
2002-09-30 08:38:39 51°14.407 2°54.327 16.08961 3.844215 30.077103  
2002-09-30 08:38:43 51°14.401 2°54.31 16.193353 3.849696 30.125941  
2002-09-30 08:38:47 51°14.395 2°54.292 16.12398 3.852437 30.1498  
2002-09-30 08:38:51 51°14.388 2°54.274 16.090766 3.852331 30.150012  
2002-09-30 08:38:57 51°14.379 2°54.248 16.166117 3.852015 30.147823  
2002-09-30 08:39:03 51°14.369 2°54.221 16.166117 3.852015 30.147823  
2002-09-30 08:39:07 51°14.362 2°54.203 16.271154 3.850961 30.13921  
2002-09-30 08:39:11 51°14.356 2°54.185 16.101682 3.848958 30.122902  
2002-09-30 08:39:17 51°14.346 2°54.156 16.103523 3.847588 30.109281  
2002-09-30 08:39:21 51°14.34 2°54.138 16.036201 3.848537 30.119795  
2002-09-30 08:39:27 51°14.33 2°54.109 16.108573 3.854545 30.170415  
2002-09-30 08:39:31 51°14.323 2°54.089 16.108573 3.854545 30.170415  
2002-09-30 08:39:37 51°14.314 2°54.06 16.181554 3.86614 30.269139  
2002-09-30 08:39:43 51°14.304 2°54.03 16.254798 3.878473 30.375465  
2002-09-30 08:39:47 51°14.297 2°54.011 16.046783 3.888066 30.456801  
2002-09-30 08:39:51 51°14.291 2°53.991 16.083145 3.899556 30.555279  
2002-09-30 08:39:57 51°14.281 2°53.961 16.048668 3.907989 30.626549  
2002-09-30 08:40:01 51°14.274 2°53.942 16.048668 3.907989 30.626549  
2002-09-30 08:40:07 51°14.264 2°53.912 16.225578 3.915685 30.692544  
2002-09-30 08:40:13 51°14.254 2°53.882 16.121327 3.921799 30.744753  
2002-09-30 08:40:14 51°14.252 2°53.877 16.086784 3.926121 30.780176  
2002-09-30 08:40:23 51°14.238 2°53.832 16.263468 3.931603 30.8263  
2002-09-30 08:40:27 51°14.231 2°53.812 16.263468 3.931603 30.8263  
2002-09-30 08:40:29 51°14.228 2°53.802 15.950196 3.936241 30.866221  
2002-09-30 08:40:35 51°14.218 2°53.772 16.300995 3.937928 30.877481  
2002-09-30 08:40:43 51°14.204 2°53.731 16.088411 3.940037 30.897049  
2002-09-30 08:40:47 51°14.197 2°53.711 16.015674 3.942567 30.916829  
2002-09-30 08:40:51 51°14.189 2°53.691 16.049396 3.943305 30.923852  
2002-09-30 08:40:57 51°14.178 2°53.662 16.049396 3.943305 30.923852  
2002-09-30 08:41:02 51°14.168 2°53.637 16.119145 3.944359 30.931322  
2002-09-30 08:41:06 51°14.16 2°53.618 16.119915 3.944781 30.935583  
2002-09-30 08:41:11 51°14.15 2°53.594 16.083444 3.946573 30.951236  
2002-09-30 08:41:17 51°14.138 2°53.565 16.047297 3.948365 30.96631  
2002-09-30 08:41:22 51°14.128 2°53.54 16.0855 3.949208 30.974256  
2002-09-30 08:41:27 51°14.118 2°53.516 16.0855 3.949208 30.974256  
2002-09-30 08:41:31 51°14.11 2°53.497 15.978847 3.949525 30.979919  
2002-09-30 08:41:37 51°14.097 2°53.468 16.154227 3.950263 30.985785  
2002-09-30 08:41:42 51°14.087 2°53.443 16.111612 3.951106 30.993153  
2002-09-30 08:41:47 51°14.078 2°53.419 16.148153 3.951422 30.997077  
2002-09-30 08:41:52 51°14.068 2°53.394 16.117005 3.953215 31.012155  
2002-09-30 08:41:57 51°14.058 2°53.369 16.117005 3.953215 31.012155  
2002-09-30 08:42:02 51°14.049 2°53.344 16.117861 3.954901 31.026893  
2002-09-30 08:42:07 51°14.039 2°53.319 16.013659 3.955745 31.032519  
2002-09-30 08:42:11 51°14.032 2°53.299 16.183734 3.956694 31.042553  
2002-09-30 08:42:17 51°14.02 2°53.269 16.068756 3.955956 31.037848  
2002-09-30 08:42:22 51°14.011 2°53.244 16.092393 3.956166 31.040272  
2002-09-30 08:42:27 51°14.002 2°53.218 15.916038 3.957537 31.051667  
2002-09-30 08:42:32 51°13.992 2°53.193 15.916038 3.957537 31.051667  
2002-09-30 08:42:36 51°13.985 2°53.172 16.089353 3.956588 31.042794  
2002-09-30 08:42:43 51°13.973 2°53.136 16.200278 3.957748 31.052929  
2002-09-30 08:42:47 51°13.966 2°53.115 16.063874 3.95838 31.05962  
2002-09-30 08:42:51 51°13.958 2°53.095 16.208356 3.958486 31.068686  
2002-09-30 08:42:55 51°13.952 2°53.074 16.216049 3.95954 31.080814  
2002-09-30 08:43:03 51°13.937 2°53.033 16.216049 3.95954 31.080814  
2002-09-30 08:43:07 51°13.93 2°53.012 16.221989 3.958381 31.075332  
2002-09-30 08:43:12 51°13.921 2°52.986 16.014945 3.958381 31.076497  
2002-09-30 08:43:17 51°13.913 2°52.96 16.196175 3.958697 31.076933  
2002-09-30 08:43:22 51°13.904 2°52.934 16.057407 3.959751 31.084404  
2002-09-30 08:43:26 51°13.897 2°52.914 16.060148 3.962176 31.102693  
2002-09-30 08:43:32 51°13.886 2°52.883 16.060148 3.962176 31.102693  
2002-09-30 08:43:36 51°13.878 2°52.862 16.059848 3.961754 31.094346  
2002-09-30 08:43:42 51°13.868 2°52.832 16.099542 3.963441 31.106763  
2002-09-30 08:43:47 51°13.859 2°52.806 16.133779 3.963019 31.097252  
2002-09-30 08:43:53 51°13.847 2°52.775 16.100184 3.9646 31.109327  
2002-09-30 08:43:57 51°13.84 2°52.755 16.100184 3.9646 31.109327  
2002-09-30 08:44:02 51°13.831 2°52.73 16.134378 3.965444 31.113786  
2002-09-30 08:44:07 51°13.822 2°52.704 16.134078 3.965971 31.117811  
2002-09-30 08:44:12 51°13.813 2°52.678 16.027888 3.965971 31.114898  
2002-09-30 08:44:17 51°13.805 2°52.653 16.236601 3.96692 31.121443  
2002-09-30 08:44:22 51°13.796 2°52.626 16.027759 3.966709 31.1196  
2002-09-30 08:44:27 51°13.787 2°52.6 16.027759 3.966709 31.1196  
2002-09-30 08:44:31 51°13.781 2°52.58 16.055179 3.965127 31.106946  
2002-09-30 08:44:37 51°13.77 2°52.548 16.230278 3.966287 31.115333  
2002-09-30 08:44:42 51°13.762 2°52.522 16.058435 3.966392 31.115671  
2002-09-30 08:44:46 51°13.755 2°52.501 15.98678 3.968185 31.134247  
2002-09-30 08:44:51 51°13.747 2°52.475 16.064003 3.969239 31.140547  
2002-09-30 08:44:56 51°13.738 2°52.449 16.064003 3.969239 31.140547  
2002-09-30 08:45:01 51°13.73 2°52.423 15.992097 3.969344 31.1438  
2002-09-30 08:45:07 51°13.721 2°52.392 16.029045 3.969766 31.148652  
2002-09-30 08:45:11 51°13.713 2°52.37 16.132709 3.970399 31.155347  
2002-09-30 08:45:17 51°13.703 2°52.338 15.993898 3.968079 31.133909  
2002-09-30 08:45:22 51°13.694 2°52.311 15.994026 3.970082 31.152  
2002-09-30 08:45:25 51°13.688 2°52.295 15.994026 3.970082 31.152  
2002-09-30 08:45:30 51°13.679 2°52.268 16.031145 3.970399 31.153598  
2002-09-30 08:45:37 51°13.667 2°52.23 15.962378 3.971242 31.159803  
2002-09-30 08:45:42 51°13.657 2°52.203 15.963579 3.970715 31.154613  
2002-09-30 08:45:46 51°13.65 2°52.181 16.030416 3.972296 31.167852  
2002-09-30 08:45:52 51°13.639 2°52.149 15.994112 3.973034 31.173719  
2002-09-30 08:45:57 51°13.629 2°52.122 15.994198 3.972296 31.166685  
2002-09-30 08:46:02 51°13.619 2°52.095 15.994198 3.972296 31.166685  
2002-09-30 08:46:07 51°13.61 2°52.069 16.062504 3.974827 31.188801  
2002-09-30 08:46:11 51°13.602 2°52.047 16.133094 3.973351 31.175316  
2002-09-30 08:46:17 51°13.591 2°52.015 16.065416 3.975143 31.189815  
2002-09-30 08:46:22 51°13.581 2°51.988 16.170821 3.975248 31.193071  
2002-09-30 08:46:27 51°13.572 2°51.961 16.064731 3.974827 31.188801  
2002-09-30 08:46:31 51°13.565 2°51.939 16.064731 3.974827 31.188801  
2002-09-30 08:46:35 51°13.557 2°51.917 16.100569 3.975037 31.191228  
2002-09-30 08:46:42 51°13.544 2°51.879 15.927326 3.976197 31.202534  
2002-09-30 08:46:46 51°13.537 2°51.858 16.071926 3.974405 31.186282  
2002-09-30 08:46:51 51°13.527 2°51.831 16.072611 3.975143 31.19215  
2002-09-30 08:46:56 51°13.518 2°51.804 15.968297 3.975986 31.198939  
2002-09-30 08:47:01 51°13.509 2°51.777 15.968297 3.975986 31.198939  
2002-09-30 08:47:07 51°13.497 2°51.744 16.041471 3.977779 31.213438  
2002-09-30 08:47:10 51°13.492 2°51.728 16.115122 3.976303 31.201119  
2002-09-30 08:47:17 51°13.479 2°51.69 16.215664 3.97683 31.203391  
2002-09-30 08:47:22 51°13.47 2°51.663 16.079377 3.97704 31.205235  
2002-09-30 08:47:27 51°13.46 2°51.637 16.079377 3.97704 31.205235  
2002-09-30 08:47:31 51°13.453 2°51.615 16.043656 3.977989 31.210608  
2002-09-30 08:47:35 51°13.446 2°51.594 16.151062 3.977251 31.204158  
2002-09-30 08:47:42 51°13.433 2°51.556 16.047554 3.977568 31.20517  
2002-09-30 08:47:47 51°13.424 2°51.529 16.1206 3.978622 31.213801  
2002-09-30 08:47:52 51°13.415 2°51.502 16.193524 3.978411 31.211958  
2002-09-30 08:47:55 51°13.409 2°51.485 16.193524 3.978411 31.211958  
2002-09-30 08:48:02 51°13.396 2°51.447 16.195234 3.979887 31.221938  
2002-09-30 08:48:07 51°13.387 2°51.419 16.233055 3.981257 31.233917  
2002-09-30 08:48:12 51°13.378 2°51.392 16.019274 3.982101 31.241288  
2002-09-30 08:48:17 51°13.369 2°51.364 16.091879 3.981152 31.231826  
2002-09-30 08:48:22 51°13.36 2°51.336 16.055522 3.980836 31.226725  
2002-09-30 08:48:25 51°13.354 2°51.32 16.055522 3.980836 31.226725  
2002-09-30 08:48:29 51°13.347 2°51.298 16.230534 3.983261 31.246164  
2002-09-30 08:48:34 51°13.338 2°51.27 16.128559 3.982733 31.238635  
2002-09-30 08:48:42 51°13.323 2°51.227 16.091536 3.983682 31.246927  
2002-09-30 08:48:47 51°13.314 2°51.2 16.199979 3.982944 31.240478  
2002-09-30 08:48:49 51°13.31 2°51.189 16.024502 3.982839 31.240141  
2002-09-30 08:48:57 51°13.295 2°51.145 16.024502 3.982839 31.240141  
2002-09-30 08:49:02 51°13.286 2°51.118 16.339994 3.983998 31.249106  
2002-09-30 08:49:06 51°13.279 2°51.096 16.166374 3.984104 31.250612  
2002-09-30 08:49:12 51°13.267 2°51.064 16.273502 3.984526 31.252544  
2002-09-30 08:49:17 51°13.258 2°51.037 16.20763 3.984631 31.253465  
2002-09-30 08:49:22 51°13.248 2°51.01 16.239421 3.984631 31.252881  
2002-09-30 08:49:26 51°13.241 2°50.988 16.239421 3.984631 31.252881  
2002-09-30 08:49:32 51°13.229 2°50.956 16.203313 3.984842 31.253554  
2002-09-30 08:49:37 51°13.22 2°50.929 16.095817 3.984526 31.250206  
2002-09-30 08:49:42 51°13.21 2°50.902 16.166887 3.984209 31.246858  
2002-09-30 08:49:47 51°13.2 2°50.875 16.135319 3.985896 31.261013  
2002-09-30 08:49:51 51°13.193 2°50.853 16.240617 3.985474 31.256744  
2002-09-30 08:49:57 51°13.182 2°50.82 16.312646 3.984947 31.252138  
2002-09-30 08:50:02 51°13.172 2°50.793 16.312646 3.984947 31.252138  
2002-09-30 08:50:07 51°13.163 2°50.766 16.104422 3.985369 31.256407  
2002-09-30 08:50:10 51°13.157 2°50.749 16.179501 3.984631 31.250543  
2002-09-30 08:50:17 51°13.144 2°50.711 16.392996 3.984947 31.253307  
2002-09-30 08:50:22 51°13.135 2°50.684 16.182024 3.986318 31.264114  
2002-09-30 08:50:27 51°13.126 2°50.656 16.254798 3.987794 31.274672  
2002-09-30 08:50:32 51°13.116 2°50.629 16.254798 3.987794 31.274672  
2002-09-30 08:50:37 51°13.107 2°50.602 16.185273 3.987267 31.269481  
2002-09-30 08:50:42 51°13.098 2°50.574 16.327921 3.987794 31.271164  
2002-09-30 08:50:47 51°13.089 2°50.547 16.32822 3.987477 31.267231  
2002-09-30 08:50:50 51°13.083 2°50.53 16.226005 3.987161 31.262715  
2002-09-30 08:50:57 51°13.07 2°50.492 16.226005 3.987161 31.262715  
2002-09-30 08:51:02 51°13.061 2°50.465 16.154912 3.989375 31.278549  
2002-09-30 08:51:07 51°13.052 2°50.438 16.255823 3.989375 31.279718  
2002-09-30 08:51:09 51°13.048 2°50.427 16.253986 3.991062 31.2927  
2002-09-30 08:51:17 51°13.033 2°50.383 16.258172 3.990324 31.285668  
2002-09-30 08:51:22 51°13.024 2°50.355 16.117476 3.991484 31.29229  
2002-09-30 08:51:27 51°13.015 2°50.328 16.117476 3.991484 31.29229  
2002-09-30 08:51:30 51°13.01 2°50.311 16.153372 3.991905 31.296559  
2002-09-30 08:51:37 51°12.997 2°50.273 16.428024 3.990746 31.285844  
2002-09-30 08:51:42 51°12.988 2°50.246 16.321692 3.991167 31.291282  
2002-09-30 08:51:45 51°12.983 2°50.229 16.214211 3.992749 31.307437  
2002-09-30 08:51:51 51°12.972 2°50.197 16.248391 3.993276 31.310287  
2002-09-30 08:51:54 51°12.966 2°50.18 16.248391 3.993276 31.310287  
2002-09-30 08:52:02 51°12.951 2°50.137 16.28234 3.993065 31.307275  
2002-09-30 08:52:07 51°12.941 2°50.11 16.137758 3.993065 31.30786  
2002-09-30 08:52:10 51°12.935 2°50.094 16.13549 3.995068 31.326532  
2002-09-30 08:52:17 51°12.921 2°50.057 16.20233 3.994752 31.326696  
2002-09-30 08:52:22 51°12.912 2°50.03 16.131169 3.994647 31.326946  
2002-09-30 08:52:26 51°12.904 2°50.008 16.131169 3.994647 31.326946  
2002-09-30 08:52:29 51°12.898 2°49.992 16.163166 3.992538 31.307936  
2002-09-30 08:52:35 51°12.887 2°49.959 16.269275 3.99433 31.325353  
2002-09-30 08:52:42 51°12.875 2°49.92 16.337392 3.994014 31.326103  
2002-09-30 08:52:47 51°12.866 2°49.893 16.055693 3.994014 31.327275  
2002-09-30 08:52:52 51°12.857 2°49.865 16.194764 3.993382 31.324089  
2002-09-30 08:52:55 51°12.852 2°49.849 16.194764 3.993382 31.324089  
2002-09-30 08:53:02 51°12.839 2°49.81 16.089952 3.993698 31.328025  
2002-09-30 08:53:07 51°12.83 2°49.782 16.090124 3.9918 31.313195  
2002-09-30 08:53:12 51°12.821 2°49.755 16.161969 3.99296 31.324504  
2002-09-30 08:53:17 51°12.812 2°49.728 16.15782 3.991906 31.314702  
2002-09-30 08:53:26 51°12.794 2°49.679 16.054922 3.993065 31.326011  
2002-09-30 08:53:30 51°12.787 2°49.658 16.228056 3.992749 31.32559  
2002-09-30 08:53:34 51°12.779 2°49.636 15.98425 3.993276 31.33137  
2002-09-30 08:53:40 51°12.767 2°49.604 16.193653 3.992749 31.32559  
2002-09-30 08:53:46 51°12.756 2°49.572 16.125178 3.993593 31.334721  
2002-09-30 08:53:51 51°12.746 2°49.544 16.125178 3.993593 31.334721  
2002-09-30 08:53:56 51°12.737 2°49.517 16.405782 3.993593 31.333549  
2002-09-30 08:54:01 51°12.728 2°49.49 16.301507 3.992538 31.324918  
2002-09-30 08:54:06 51°12.719 2°49.462 16.129115 3.993487 31.3338  
2002-09-30 08:54:11 51°12.711 2°49.434 16.196046 3.993487 31.331455  
2002-09-30 08:54:14 51°12.705 2°49.417 16.30219 3.993593 31.332963  
2002-09-30 08:54:21 51°12.694 2°49.378 16.30219 3.993382 31.331706  
2002-09-30 08:54:26 51°12.686 2°49.35 16.30219 3.993382 31.331706  
2002-09-30 08:54:31 51°12.678 2°49.322 16.195234 3.992855 31.327097  
2002-09-30 08:54:36 51°12.67 2°49.293 16.228996 3.993593 31.332377  
2002-09-30 08:54:39 51°12.666 2°49.276 16.223783 3.993803 31.33422  
2002-09-30 08:54:46 51°12.655 2°49.236 16.152516 3.993698 31.330955  
2002-09-30 08:54:50 51°12.649 2°49.213 16.113709 3.993487 31.330283  
2002-09-30 08:54:54 51°12.643 2°49.19 16.113709 3.993487 31.330283  
2002-09-30 08:55:00 51°12.634 2°49.156 16.218442 3.994436 31.338578  
2002-09-30 08:55:06 51°12.624 2°49.122 15.935179 3.993698 31.333299  
2002-09-30 08:55:10 51°12.618 2°49.099 16.073938 3.994014 31.338408  
2002-09-30 08:55:15 51°12.61 2°49.071 16.143961 3.99412 31.341089  
2002-09-30 08:55:21 51°12.6 2°49.037 16.143961 3.99412 31.341089  
2002-09-30 08:55:26 51°12.592 2°49.009 16.212075 3.993065 31.334216  
2002-09-30 08:55:31 51°12.585 2°48.98 16.320198 3.992855 31.333545  
2002-09-30 08:55:36 51°12.577 2°48.952 16.148025 3.99296 31.336812  
2002-09-30 08:55:39 51°12.572 2°48.935 16.110285 3.992433 31.333375  
2002-09-30 08:55:46 51°12.561 2°48.895 16.285158 3.992855 31.338235  
2002-09-30 08:55:51 51°12.553 2°48.867 16.180699 3.983472 31.257362  
2002-09-30 08:55:56 51°12.545 2°48.839 16.180699 3.983472 31.257362  
2002-09-30 08:56:01 51°12.537 2°48.81 16.112211 3.992749 31.337313  
2002-09-30 08:56:06 51°12.529 2°48.782 16.219083 3.99296 31.338571  
2002-09-30 08:56:10 51°12.523 2°48.76 15.972972 3.992538 31.334296  
2002-09-30 08:56:16 51°12.513 2°48.726 15.93844 3.992644 31.336391  
2002-09-30 08:56:21 51°12.505 2°48.698 15.93844 3.992644 31.336391  
2002-09-30 08:56:25 51°12.498 2°48.675 16.045284 3.993909 31.346282  
2002-09-30 08:56:29 51°12.491 2°48.653 16.154056 3.993487 31.342594  
2002-09-30 08:56:34 51°12.483 2°48.625 16.085071 3.993804 31.34536  
2002-09-30 08:56:39 51°12.474 2°48.597 16.153671 3.993909 31.346282  
2002-09-30 08:56:46 51°12.463 2°48.558 16.466823 3.994331 31.348797  
2002-09-30 08:56:50 51°12.456 2°48.536 16.466823 3.994331 31.348797  
2002-09-30 08:56:54 51°12.449 2°48.513 16.32903 3.994331 31.348797  
2002-09-30 08:56:59 51°12.441 2°48.485 16.189506 3.994858 31.351061  
2002-09-30 08:57:06 51°12.43 2°48.446 16.259838 3.994542 31.348295  
2002-09-30 08:57:10 51°12.423 2°48.423 16.330908 3.994752 31.348379  
2002-09-30 08:57:16 51°12.414 2°48.389 16.15581 3.994858 31.349888  
2002-09-30 08:57:21 51°12.406 2°48.36 16.161242 3.995807 31.358185  
2002-09-30 08:57:26 51°12.398 2°48.332 16.161242 3.995807 31.358185  
2002-09-30 08:57:29 51°12.393 2°48.315 16.19921 3.995701 31.35609  
2002-09-30 08:57:34 51°12.386 2°48.286 16.20998 3.995807 31.358185  
2002-09-30 08:57:41 51°12.375 2°48.246 16.110671 3.996756 31.365896  
2002-09-30 08:57:46 51°12.367 2°48.218 16.291177 3.996861 31.366231  
2002-09-30 08:57:51 51°12.359 2°48.189 16.261033 3.997177 31.367823  
2002-09-30 08:57:54 51°12.354 2°48.172 16.261033 3.997177 31.367823  
2002-09-30 08:58:00 51°12.344 2°48.138 16.264065 3.998021 31.372851  
2002-09-30 08:58:06 51°12.334 2°48.103 16.197286 3.998969 31.37704  
2002-09-30 08:58:10 51°12.328 2°48.081 16.16462 4.000129 31.383071  
2002-09-30 08:58:14 51°12.321 2°48.058 16.130741 4.00034 31.379633  
2002-09-30 08:58:19 51°12.313 2°48.029 16.201774 4.001921 31.39111  
2002-09-30 08:58:26 51°12.302 2°47.99 16.201774 4.001921 31.39111  
2002-09-30 08:58:30 51°12.295 2°47.967 16.169025 4.002976 31.395043  
2002-09-30 08:58:36 51°12.285 2°47.933 16.203826 4.003503 31.396717  
2002-09-30 08:58:41 51°12.277 2°47.905 16.202501 4.003924 31.398055  
2002-09-30 08:58:45 51°12.27 2°47.883 16.378886 4.004873 31.405173  
2002-09-30 08:58:50 51°12.261 2°47.855 16.378886 4.004873 31.405173  
2002-09-30 08:58:53 51°12.256 2°47.838 16.341871 4.005717 31.41137  
2002-09-30 08:59:02 51°12.241 2°47.787 16.271581 4.005822 31.41053  
2002-09-30 08:59:07 51°12.233 2°47.759 16.16569 4.005927 31.409104  
2002-09-30 08:59:12 51°12.224 2°47.731 16.128345 4.006244 31.410694  
2002-09-30 08:59:17 51°12.216 2°47.702 16.09175 4.006244 31.411281  
2002-09-30 08:59:22 51°12.208 2°47.674 16.266158 4.006665 31.414966  
2002-09-30 08:59:27 51°12.2 2°47.646 16.266158 4.006665 31.414966  
2002-09-30 08:59:31 51°12.194 2°47.623 16.231004 4.006771 31.417061  
2002-09-30 08:59:36 51°12.186 2°47.595 16.230449 4.006982 31.416556  
2002-09-30 08:59:42 51°12.176 2°47.56 16.301891 4.006982 31.420078  
2002-09-30 08:59:47 51°12.169 2°47.532 16.19455 4.007087 31.42276  
2002-09-30 08:59:49 51°12.165 2°47.52 16.124323 4.007298 31.424603  
2002-09-30 08:59:57 51°12.153 2°47.475 16.124323 4.007298 31.424603  
2002-09-30 09:00:02 51°12.145 2°47.447 16.020603 4.007825 31.428035  
2002-09-30 09:00:07 51°12.137 2°47.418 16.228654 4.007931 31.431893  
2002-09-30 09:00:11 51°12.131 2°47.396 16.262229 4.007298 31.425778  
2002-09-30 09:00:17 51°12.121 2°47.361 16.192712 4.007509 31.428795  
2002-09-30 09:00:22 51°12.114 2°47.333 16.192242 4.00772 31.429463  
2002-09-30 09:00:27 51°12.105 2°47.305 16.228697 4.008142 31.433736  
2002-09-30 09:00:32 51°12.097 2°47.277 16.228697 4.008142 31.433736  
2002-09-30 09:00:35 51°12.092 2°47.26 16.300013 4.006982 31.42595  
2002-09-30 09:00:42 51°12.081 2°47.22 16.195576 4.008247 31.434658  
2002-09-30 09:00:47 51°12.072 2°47.192 16.233482 4.008142 31.434911  
2002-09-30 09:00:53 51°12.063 2°47.158 16.513728 4.007931 31.433656  
2002-09-30 09:00:57 51°12.056 2°47.135 16.301379 4.008036 31.434577  
2002-09-30 09:01:02 51°12.048 2°47.107 16.301379 4.008036 31.434577  
2002-09-30 09:01:07 51°12.04 2°47.079 16.058949 4.007825 31.432147  
2002-09-30 09:01:12 51°12.032 2°47.05 16.093163 4.006982 31.424775  
2002-09-30 09:01:17 51°12.024 2°47.022 16.162482 4.008563 31.436247  
2002-09-30 09:01:22 51°12.016 2°46.994 16.409788 4.007193 31.424269  
2002-09-30 09:01:27 51°12.009 2°46.965 16.094876 4.008563 31.43566  
2002-09-30 09:01:31 51°12.003 2°46.942 16.094876 4.008563 31.43566  
2002-09-30 09:01:37 51°11.994 2°46.908 16.340549 4.008142 31.433736  
2002-09-30 09:01:42 51°11.986 2°46.879 16.200492 4.008669 31.436581  
2002-09-30 09:01:47 51°11.978 2°46.85 16.235063 4.008036 31.431053  
2002-09-30 09:01:51 51°11.972 2°46.827 16.199894 4.008352 31.432642  
2002-09-30 09:01:57 51°11.963 2°46.793 16.200492 4.008774 31.43574  
2002-09-30 09:02:02 51°11.956 2°46.764 16.200492 4.008774 31.43574  
2002-09-30 09:02:07 51°11.948 2°46.735 16.304921 4.008985 31.435234  
2002-09-30 09:02:12 51°11.941 2°46.706 16.05912 4.008774 31.435153  
2002-09-30 09:02:17 51°11.934 2°46.677 16.094062 4.008352 31.431468  
2002-09-30 09:02:22 51°11.926 2°46.648 16.130741 4.008352 31.433817  
2002-09-30 09:02:26 51°11.921 2°46.625 16.130741 4.008352 31.433817  
2002-09-30 09:02:31 51°11.914 2°46.596 16.164492 4.00888 31.436074  
2002-09-30 09:02:37 51°11.905 2°46.562 16.060233 4.009196 31.441188  
2002-09-30 09:02:41 51°11.899 2°46.538 16.166417 4.008563 31.434485  
2002-09-30 09:02:47 51°11.89 2°46.504 16.165262 4.009301 31.439172  
2002-09-30 09:02:51 51°11.884 2°46.481 16.271666 4.009196 31.439426  
2002-09-30 09:02:57 51°11.875 2°46.446 16.271666 4.009196 31.439426  
2002-09-30 09:03:02 51°11.868 2°46.417 16.131896 4.008774 31.43574  
2002-09-30 09:03:07 51°11.86 2°46.388 15.991797 4.008774 31.436915  
2002-09-30 09:03:12 51°11.853 2°46.36 16.270898 4.009512 31.441015  
2002-09-30 09:03:17 51°11.846 2°46.331 16.028102 4.009512 31.44219  
2002-09-30 09:03:21 51°11.84 2°46.307 16.204211 4.008563 31.432136  
2002-09-30 09:03:27 51°11.831 2°46.273 16.204211 4.008563 31.432136  
2002-09-30 09:03:32 51°11.824 2°46.244 16.239805 4.00909 31.436742  
2002-09-30 09:03:37 51°11.816 2°46.215 16.205023 4.008669 31.431883  
2002-09-30 09:03:42 51°11.809 2°46.186 16.031273 4.008985 31.437583  
2002-09-30 09:03:47 51°11.802 2°46.157 16.065801 4.008985 31.435821  
2002-09-30 09:03:52 51°11.795 2°46.128 16.067043 4.00909 31.43733  
2002-09-30 09:03:57 51°11.787 2°46.099 16.067043 4.00909 31.43733  
2002-09-30 09:04:02 51°11.78 2°46.07 16.17219 4.009301 31.438585  
2002-09-30 09:04:06 51°11.774 2°46.047 16.06593 4.008774 31.433391  
2002-09-30 09:04:12 51°11.765 2°46.012 16.066315 4.008985 31.432885  
2002-09-30 09:04:17 51°11.758 2°45.983 16.102795 4.009512 31.438078  
2002-09-30 09:04:22 51°11.75 2°45.954 16.174499 4.009407 31.437157  
2002-09-30 09:04:27 51°11.742 2°45.926 16.070255 4.009934 31.442351  
2002-09-30 09:04:32 51°11.734 2°45.897 16.070255 4.009934 31.442351  
2002-09-30 09:04:37 51°11.727 2°45.868 16.06987 4.009618 31.438412  
2002-09-30 09:04:42 51°11.72 2°45.839 16.140453 4.010145 31.441844  
2002-09-30 09:04:47 51°11.712 2°45.81 16.003501 4.01025 31.444527  
2002-09-30 09:04:51 51°11.707 2°45.786 16.104807 4.010356 31.443686  
2002-09-30 09:04:57 51°11.699 2°45.751 16.246896 4.011199 31.449881  
2002-09-30 09:05:02 51°11.692 2°45.722 16.246896 4.011199 31.449881  
2002-09-30 09:05:07 51°11.685 2°45.692 16.24711 4.011094 31.447785  
2002-09-30 09:05:12 51°11.679 2°45.663 16.140753 4.010566 31.443179  
2002-09-30 09:05:17 51°11.672 2°45.633 16.070084 4.010777 31.445609  
2002-09-30 09:05:22 51°11.666 2°45.603 16.104336 4.011199 31.448119  
2002-09-30 09:05:27 51°11.66 2°45.574 16.035729 4.011094 31.447198  
2002-09-30 09:05:31 51°11.655 2°45.55 16.035729 4.011094 31.447198  
2002-09-30 09:05:37 51°11.648 2°45.514 16.175268 4.010777 31.44326  
2002-09-30 09:05:42 51°11.641 2°45.484 16.033801 4.010672 31.442339  
2002-09-30 09:05:47 51°11.635 2°45.455 16.10532 4.010988 31.445689  
2002-09-30 09:05:51 51°11.63 2°45.431 16.069056 4.010777 31.444434  
2002-09-30 09:05:57 51°11.622 2°45.395 16.072011 4.011621 31.450629  
2002-09-30 09:06:02 51°11.616 2°45.365 16.072011 4.011621 31.450629  
2002-09-30 09:06:07 51°11.61 2°45.336 16.034487 4.011726 31.452138  
2002-09-30 09:06:11 51°11.604 2°45.312 16.142293 4.011621 31.450629  
2002-09-30 09:06:17 51°11.597 2°45.276 16.070384 4.011621 31.452979  
2002-09-30 09:06:22 51°11.59 2°45.247 16.143576 4.01257 31.460683  
2002-09-30 09:06:27 51°11.584 2°45.217 16.143576 4.01257 31.460683  
2002-09-30 09:06:32 51°11.578 2°45.187 16.108659 4.010988 31.446864  
2002-09-30 09:06:37 51°11.572 2°45.158 16.073938 4.01141 31.449962  
2002-09-30 09:06:42 51°11.566 2°45.128 16.109001 4.011621 31.452391  
2002-09-30 09:06:47 51°11.559 2°45.098 16.073639 4.011937 31.452805  
2002-09-30 09:06:51 51°11.554 2°45.075 16.109558 4.012253 31.457331  
2002-09-30 09:06:57 51°11.547 2°45.039 16.109558 4.012253 31.457331  
2002-09-30 09:07:02 51°11.54 2°45.009 16.034487 4.01257 31.457157  
2002-09-30 09:07:06 51°11.535 2°44.985 16.074024 4.013202 31.462684  
2002-09-30 09:07:12 51°11.527 2°44.95 16.076379 4.013413 31.464527  
2002-09-30 09:07:17 51°11.521 2°44.92 16.216647 4.01394 31.468545  
2002-09-30 09:07:22 51°11.515 2°44.89 16.182024 4.014573 31.474072  
2002-09-30 09:07:26 51°11.51 2°44.866 16.182024 4.014573 31.474072  
2002-09-30 09:07:32 51°11.501 2°44.831 16.076037 4.013624 31.465781  
2002-09-30 09:07:37 51°11.494 2°44.802 16.145629 4.014784 31.475327  
2002-09-30 09:07:42 51°11.487 2°44.772 16.040614 4.014046 31.470054  
2002-09-30 09:07:47 51°11.48 2°44.743 16.076165 4.013729 31.46494  
2002-09-30 09:07:51 51°11.474 2°44.719 16.146827 4.014994 31.473055  
2002-09-30 09:07:57 51°11.466 2°44.684 16.11341 4.014994 31.475994  
2002-09-30 09:08:02 51°11.459 2°44.655 16.11341 4.014994 31.475994  
2002-09-30 09:08:06 51°11.454 2°44.631 16.150977 4.014678 31.471467  
2002-09-30 09:08:12 51°11.446 2°44.596 16.078991 4.015205 31.477248  
2002-09-30 09:08:17 51°11.439 2°44.566 16.082117 4.015205 31.476072  
2002-09-30 09:08:22 51°11.433 2°44.536 16.115892 4.015943 31.482521  
2002-09-30 09:08:27 51°11.426 2°44.507 16.081432 4.015205 31.476072  
2002-09-30 09:08:32 51°11.42 2°44.477 16.081432 4.015205 31.476072  
2002-09-30 09:08:37 51°11.413 2°44.447 16.185957 4.015522 31.47766  
2002-09-30 09:08:42 51°11.406 2°44.418 16.148923 4.015311 31.474055  
2002-09-30 09:08:46 51°11.401 2°44.394 16.113709 4.015522 31.477073  
2002-09-30 09:08:51 51°11.394 2°44.365 16.217673 4.016154 31.480836  
2002-09-30 09:08:57 51°11.385 2°44.33 16.150763 4.016365 31.483266  
2002-09-30 09:09:02 51°11.378 2°44.3 16.150763 4.016365 31.483266  
2002-09-30 09:09:06 51°11.373 2°44.277 16.25262 4.015522 31.477073  
2002-09-30 09:09:11 51°11.366 2°44.247 16.429259 4.016049 31.482266  
2002-09-30 09:09:17 51°11.358 2°44.212 16.117048 4.016787 31.488126  
2002-09-30 09:09:22 51°11.352 2°44.182 16.114822 4.015943 31.482521  
2002-09-30 09:09:27 51°11.345 2°44.152 16.221775 4.016365 31.485617  
2002-09-30 09:09:31 51°11.34 2°44.128 16.221775 4.016365 31.485617  
2002-09-30 09:09:37 51°11.333 2°44.092 16.257745 4.016365 31.484441  
2002-09-30 09:09:42 51°11.327 2°44.062 16.327878 4.016681 31.487793  
2002-09-30 09:09:47 51°11.321 2°44.032 16.401392 4.017208 31.490047  
2002-09-30 09:09:51 51°11.315 2°44.008 16.156109 4.016787 31.487538  
2002-09-30 09:09:57 51°11.308 2°43.972 16.156109 4.016787 31.487538  
2002-09-30 09:10:02 51°11.302 2°43.943 16.121969 4.017314 31.492144  
2002-09-30 09:10:07 51°11.295 2°43.913 16.229423 4.017314 31.492732  
2002-09-30 09:10:12 51°11.289 2°43.883 16.298989 4.017314 31.491556  
2002-09-30 09:10:17 51°11.282 2°43.853 16.194123 4.016787 31.485774  
2002-09-30 09:10:22 51°11.276 2°43.823 16.194166 4.018157 31.495396  
2002-09-30 09:10:27 51°11.269 2°43.794 16.194166 4.018157 31.495396  
2002-09-30 09:10:31 51°11.264 2°43.77 16.126933 4.01763 31.490791  
2002-09-30 09:10:37 51°11.255 2°43.734 16.1975 4.017736 31.489361  
2002-09-30 09:10:42 51°11.248 2°43.705 16.128003 4.017208 31.485931  
2002-09-30 09:10:47 51°11.241 2°43.675 16.164663 4.018263 31.493378  
2002-09-30 09:10:53 51°11.233 2°43.639 16.202544 4.018263 31.494554  
2002-09-30 09:10:57 51°11.228 2°43.616 16.202544 4.018263 31.494554  
2002-09-30 09:11:02 51°11.221 2°43.586 16.204424 4.017946 31.490615  
2002-09-30 09:11:07 51°11.214 2°43.556 16.381401 4.019106 31.49957  
2002-09-30 09:11:12 51°11.208 2°43.526 16.066529 4.019212 31.498727  
2002-09-30 09:11:17 51°11.201 2°43.497 16.035001 4.019844 31.503664  
2002-09-30 09:11:22 51°11.194 2°43.467 16.07047 4.019844 31.503664  
2002-09-30 09:11:27 51°11.187 2°43.437 16.14118 4.019106 31.496042  
2002-09-30 09:11:32 51°11.181 2°43.407 16.14118 4.019106 31.496042  
2002-09-30 09:11:37 51°11.174 2°43.378 16.142378 4.019739 31.49804  
2002-09-30 09:11:42 51°11.167 2°43.348 16.179202 4.020266 31.503232  
2002-09-30 09:11:47 51°11.16 2°43.318 16.214511 4.021004 31.50615  
2002-09-30 09:11:52 51°11.154 2°43.288 16.389586 4.020582 31.500703  
2002-09-30 09:11:57 51°11.147 2°43.258 16.177877 4.020371 31.498862  
2002-09-30 09:12:02 51°11.141 2°43.229 16.177877 4.020371 31.498862  
2002-09-30 09:12:07 51°11.134 2°43.199 16.142806 4.020898 31.504053  
2002-09-30 09:12:12 51°11.128 2°43.169 16.175097 4.020898 31.50229  
2002-09-30 09:12:17 51°11.122 2°43.139 16.140282 4.021953 31.508557  
2002-09-30 09:12:22 51°11.115 2°43.109 16.172446 4.021953 31.509733  
2002-09-30 09:12:27 51°11.109 2°43.08 16.100997 4.021531 31.506638  
2002-09-30 09:12:33 51°11.101 2°43.044 16.100997 4.021531 31.506638  
2002-09-30 09:12:37 51°11.096 2°43.02 16.2779 4.021953 31.510321  
2002-09-30 09:12:42 51°11.09 2°42.99 16.101382 4.021742 31.50848  
2002-09-30 09:12:47 51°11.083 2°42.96 16.102795 4.022058 31.511829  
2002-09-30 09:12:51 51°11.078 2°42.936 16.311963 4.022058 31.512417  
2002-09-30 09:12:57 51°11.071 2°42.901 16.311963 4.022058 31.512417  
2002-09-30 09:13:02 51°11.064 2°42.871 16.068243 4.021953 31.512673  
2002-09-30 09:13:06 51°11.059 2°42.847 16.065801 4.021847 31.512928  
2002-09-30 09:13:12 51°11.051 2°42.811 16.172831 4.02132 31.510088  
2002-09-30 09:13:16 51°11.046 2°42.788 16.386304 4.02248 31.517865  
2002-09-30 09:13:22 51°11.037 2°42.752 16.073724 4.022058 31.515358  
2002-09-30 09:13:27 51°11.031 2°42.723 16.073724 4.022058 31.515358  
2002-09-30 09:13:33 51°11.022 2°42.687 16.212887 4.022374 31.516944  
2002-09-30 09:13:37 51°11.017 2°42.664 16.141908 4.022902 31.520959  
2002-09-30 09:13:42 51°11.01 2°42.634 16.315889 4.023218 31.525487  
2002-09-30 09:13:46 51°11.005 2°42.61 16.039371 4.022902 31.520371  
2002-09-30 09:13:51 51°10.999 2°42.581 16.178433 4.022691 31.51853  
2002-09-30 09:13:57 51°10.991 2°42.545 16.144859 4.022585 31.518197  
2002-09-30 09:14:02 51°10.985 2°42.515 16.144859 4.022585 31.518197  
2002-09-30 09:14:07 51°10.979 2°42.485 16.353216 4.023218 31.521957  
2002-09-30 09:14:11 51°10.974 2°42.461 16.423167 4.023323 31.52229  
2002-09-30 09:14:17 51°10.967 2°42.425 16.248605 4.02364 31.523876  
2002-09-30 09:14:22 51°10.961 2°42.395 16.250911 4.022902 31.518607  
2002-09-30 09:14:27 51°10.954 2°42.365 16.250911 4.022902 31.518607  
2002-09-30 09:14:31 51°10.95 2°42.341 16.1801 4.023429 31.520858  
2002-09-30 09:14:37 51°10.942 2°42.306 16.215194 4.023534 31.523543  
2002-09-30 09:14:42 51°10.936 2°42.276 16.390183 4.024272 31.529988  
2002-09-30 09:14:47 51°10.929 2°42.246 16.24916 4.024061 31.52697  
2002-09-30 09:14:52 51°10.923 2°42.216 16.390993 4.024272 31.529988  
2002-09-30 09:14:57 51°10.917 2°42.186 16.14764 4.024483 31.530653  
2002-09-30 09:15:02 51°10.91 2°42.156 16.14764 4.024483 31.530653  
2002-09-30 09:15:07 51°10.903 2°42.127 16.252876 4.024061 31.526382  
2002-09-30 09:15:12 51°10.896 2°42.097 16.07989 4.02132 31.504209  
2002-09-30 09:15:17 51°10.889 2°42.068 16.184931 4.025221 31.53651  
2002-09-30 09:15:21 51°10.884 2°42.044 16.184247 4.023745 31.524796  
2002-09-30 09:15:27 51°10.875 2°42.009 16.114009 4.024272 31.528812  
2002-09-30 09:15:31 51°10.87 2°41.985 16.114009 4.024272 31.528812  
2002-09-30 09:15:37 51°10.862 2°41.949 16.253602 4.024905 31.533748  
2002-09-30 09:15:42 51°10.855 2°41.92 16.322716 4.022691 31.514414  
2002-09-30 09:15:47 51°10.848 2°41.89 16.253773 4.023218 31.515489  
2002-09-30 09:15:51 51°10.843 2°41.866 16.219339 4.023218 31.516077  
2002-09-30 09:15:55 51°10.838 2°41.842 16.078691 4.02385 31.523365  
2002-09-30 09:16:02 51°10.827 2°41.801 16.078691 4.02385 31.523365  
2002-09-30 09:16:07 51°10.821 2°41.771 16.220963 4.022901 31.513315  
2002-09-30 09:16:12 51°10.814 2°41.741 16.185444 4.024167 31.525538  
2002-09-30 09:16:17 51°10.807 2°41.712 16.428876 4.023534 31.520015  
2002-09-30 09:16:22 51°10.8 2°41.682 16.291561 4.024694 31.528965  
2002-09-30 09:16:27 51°10.794 2°41.652 16.188095 4.024378 31.525027  
2002-09-30 09:16:32 51°10.788 2°41.622 16.188095 4.024378 31.525027  
2002-09-30 09:16:37 51°10.782 2°41.592 16.259624 4.024588 31.524516  
2002-09-30 09:16:43 51°10.774 2°41.556 16.262528 4.025116 31.530883  
2002-09-30 09:16:46 51°10.77 2°41.538 16.262443 4.023534 31.518251  
2002-09-30 09:16:51 51°10.764 2°41.508 16.299117 4.024061 31.521678  
2002-09-30 09:16:57 51°10.757 2°41.471 16.159146 4.02617 31.540089  
2002-09-30 09:17:02 51°10.751 2°41.441 16.159146 4.02617 31.540089  
2002-09-30 09:17:07 51°10.744 2°41.411 16.262613 4.024694 31.524849  
2002-09-30 09:17:12 51°10.738 2°41.381 16.157692 4.026064 31.534463  
2002-09-30 09:17:14 51°10.736 2°41.369 16.333595 4.024377 31.520912  
2002-09-30 09:17:22 51°10.726 2°41.321 16.121113 4.026697 31.539986  
2002-09-30 09:17:26 51°10.721 2°41.297 16.121113 4.026697 31.539986  
2002-09-30 09:17:30 51°10.716 2°41.273 16.224382 4.025326 31.525668  
2002-09-30 09:17:37 51°10.707 2°41.231 16.156024 4.024588 31.519226  
2002-09-30 09:17:42 51°10.701 2°41.201 16.152388 4.026381 31.536636  
2002-09-30 09:17:47 51°10.694 2°41.17 16.116919 4.026064 31.532699  
2002-09-30 09:17:51 51°10.689 2°41.147 16.184376 4.026064 31.532699  
2002-09-30 09:17:57 51°10.681 2°41.111 16.184376 4.026064 31.532699  
2002-09-30 09:18:02 51°10.674 2°41.081 16.252705 4.025326 31.527432  
2002-09-30 09:18:07 51°10.668 2°41.051 16.111527 4.025854 31.532622  
2002-09-30 09:18:11 51°10.662 2°41.027 16.111783 4.025116 31.527355  
2002-09-30 09:18:17 51°10.654 2°40.992 16.39078 4.026275 31.538069  
2002-09-30 09:18:22 51°10.647 2°40.962 16.146143 4.024905 31.526102  
2002-09-30 09:18:27 51°10.64 2°40.932 16.144902 4.025326 31.532724  
2002-09-30 09:18:32 51°10.634 2°40.902 16.144902 4.025326 31.532724  
2002-09-30 09:18:37 51°10.627 2°40.872 16.181041 4.023323 31.515234  
2002-09-30 09:18:42 51°10.62 2°40.842 16.251595 4.024694 31.528965  
2002-09-30 09:18:47 51°10.614 2°40.812 16.18181 4.026064 31.539757  
2002-09-30 09:18:52 51°10.607 2°40.782 16.146742 4.024588 31.529221  
2002-09-30 09:18:57 51°10.601 2°40.752 16.216733 4.024694 31.529553  
2002-09-30 09:19:02 51°10.594 2°40.722 16.216733 4.024694 31.529553  
2002-09-30 09:19:07 51°10.588 2°40.692 16.180827 4.02501 31.531727  
2002-09-30 09:19:11 51°10.583 2°40.668 16.250313 4.02385 31.521013  
2002-09-30 09:19:17 51°10.575 2°40.632 16.24617 4.023745 31.521268  
2002-09-30 09:19:21 51°10.57 2°40.608 16.143148 4.025221 31.53298  
2002-09-30 09:19:27 51°10.562 2°40.572 16.246768 4.022796 31.510632  
2002-09-30 09:19:33 51°10.555 2°40.537 16.246768 4.022796 31.510632  
2002-09-30 09:19:37 51°10.55 2°40.513 16.10318 4.023323 31.518762  
2002-09-30 09:19:42 51°10.543 2°40.483 16.344004 4.023323 31.51641  
2002-09-30 09:19:47 51°10.537 2°40.454 16.234508 4.022796 31.514746  
2002-09-30 09:19:53 51°10.529 2°40.418 16.337349 4.02248 31.511985  
2002-09-30 09:19:57 51°10.524 2°40.394 16.335984 4.022269 31.513671  
2002-09-30 09:20:02 51°10.518 2°40.364 16.335984 4.022269 31.513671  
2002-09-30 09:20:07 51°10.511 2°40.334 16.228526 4.022269 31.511907  
2002-09-30 09:20:11 51°10.506 2°40.311 16.15273 4.022796 31.517098  
2002-09-30 09:20:17 51°10.499 2°40.275 16.218613 4.021742 31.510243  
2002-09-30 09:20:22 51°10.493 2°40.245 16.179031 4.021109 31.508834  
2002-09-30 09:20:27 51°10.487 2°40.215 16.179031 4.021109 31.508834  
2002-09-30 09:20:31 51°10.482 2°40.191 16.144047 4.020688 31.506915  
2002-09-30 09:20:37 51°10.474 2°40.156 16.205151 4.02016 31.504663  
2002-09-30 09:20:42 51°10.468 2°40.126 16.133565 4.019001 31.495709  
2002-09-30 09:20:47 51°10.462 2°40.096 16.238652 4.017525 31.485168  
2002-09-30 09:20:52 51°10.455 2°40.067 16.132067 4.015732 31.474213  
2002-09-30 09:20:57 51°10.449 2°40.037 16.09723 4.01647 31.481835  
2002-09-30 09:21:02 51°10.442 2°40.008 16.09723 4.01647 31.481835  
2002-09-30 09:21:07 51°10.435 2°39.978 16.20139 4.014151 31.464511  
2002-09-30 09:21:11 51°10.429 2°39.954 16.445659 4.013202 31.460334  
2002-09-30 09:21:17 51°10.421 2°39.919 16.132153 4.012675 31.456316  
2002-09-30 09:21:22 51°10.414 2°39.89 16.064474 4.011937 31.453393  
2002-09-30 09:21:26 51°10.409 2°39.866 16.064474 4.011937 31.453393  
2002-09-30 09:21:32 51°10.401 2°39.831 16.273075 4.012148 31.45406  
2002-09-30 09:21:37 51°10.394 2°39.801 16.240531 4.010461 31.441084  
2002-09-30 09:21:42 51°10.388 2°39.771 16.133779 4.01025 31.441003  
2002-09-30 09:21:47 51°10.381 2°39.741 16.063103 4.010566 31.441417  
2002-09-30 09:21:50 51°10.377 2°39.723 16.239848 4.00909 31.431457  
2002-09-30 09:21:57 51°10.369 2°39.681 16.239848 4.00909 31.431457  
2002-09-30 09:22:02 51°10.363 2°39.652 16.315547 4.009723 31.435223  
2002-09-30 09:22:07 51°10.357 2°39.622 16.212374 4.010355 31.437226  
2002-09-30 09:22:12 51°10.351 2°39.592 16.213015 4.009301 31.430951  
2002-09-30 09:22:17 51°10.345 2°39.562 16.281913 4.010039 31.435637  
2002-09-30 09:22:22 51°10.339 2°39.532 16.10806 4.010461 31.438147  
2002-09-30 09:22:27 51°10.332 2°39.502 16.180528 4.008879 31.423745  
2002-09-30 09:22:32 51°10.326 2°39.472 16.180528 4.008879 31.423745  
2002-09-30 09:22:37 51°10.32 2°39.442 16.215921 4.009828 31.430273  
2002-09-30 09:22:42 51°10.313 2°39.412 16.182836 4.009196 31.424747  
2002-09-30 09:22:47 51°10.307 2°39.382 16.183521 4.009196 31.424161  
2002-09-30 09:22:51 51°10.302 2°39.359 16.115122 4.009301 31.423321  
2002-09-30 09:22:57 51°10.293 2°39.323 16.224894 4.009617 31.426671  
2002-09-30 09:23:02 51°10.287 2°39.293 16.224894 4.009617 31.426671  
2002-09-30 09:23:07 51°10.28 2°39.264 16.085799 4.010883 31.436548  
2002-09-30 09:23:12 51°10.273 2°39.234 16.121327 4.011093 31.437803  
2002-09-30 09:23:17 51°10.266 2°39.205 16.156922 4.011726 31.440393  
2002-09-30 09:23:22 51°10.259 2°39.175 16.300525 4.010672 31.430598  
2002-09-30 09:23:27 51°10.253 2°39.145 16.198483 4.010355 31.427249  
2002-09-30 09:23:32 51°10.246 2°39.116 16.198483 4.010355 31.427249  
2002-09-30 09:23:37 51°10.241 2°39.085 16.162781 4.011937 31.438713  
2002-09-30 09:23:42 51°10.236 2°39.055 16.16368 4.011831 31.436618  
2002-09-30 09:23:46 51°10.232 2°39.03 16.30411 4.010988 31.429839  
2002-09-30 09:23:51 51°10.228 2°39 16.165305 4.012464 31.439795  
2002-09-30 09:23:57 51°10.224 2°38.963 16.234593 4.010461 31.421717  
2002-09-30 09:24:02 51°10.222 2°38.932 16.234593 4.010461 31.421717  
2002-09-30 09:24:07 51°10.221 2°38.9 16.307311 4.012569 31.437782  
2002-09-30 09:24:11 51°10.22 2°38.875 16.269745 4.012886 31.439957  
2002-09-30 09:24:17 51°10.219 2°38.838 16.374111 4.012358 31.433008  
2002-09-30 09:24:22 51°10.219 2°38.807 16.094319 4.013096 31.438278  
2002-09-30 09:24:27 51°10.218 2°38.775 16.200107 4.01278 31.43669  
2002-09-30 09:24:31 51°10.218 2°38.75 16.200107 4.01278 31.43669  
2002-09-30 09:24:37 51°10.216 2°38.713 16.161327 4.012464 31.432168  
2002-09-30 09:24:42 51°10.211 2°38.684 16.198056 4.012991 31.436771  
2002-09-30 09:24:47 51°10.204 2°38.656 16.126462 4.012147 31.429994  
2002-09-30 09:24:52 51°10.194 2°38.63 16.195277 4.011831 31.427819  
2002-09-30 09:24:57 51°10.184 2°38.605 16.195277 4.011831 31.427819  
2002-09-30 09:25:01 51°10.175 2°38.585 16.160942 4.012464 31.434515  
2002-09-30 09:25:07 51°10.161 2°38.556 16.198397 4.011409 31.425896  
2002-09-30 09:25:13 51°10.147 2°38.528 16.058306 4.012253 31.434434  
2002-09-30 09:25:17 51°10.136 2°38.511 16.163466 4.011199 31.426988  
2002-09-30 09:25:22 51°10.122 2°38.49 16.127489 4.012148 31.43586  
2002-09-30 09:25:27 51°10.108 2°38.47 16.127489 4.012148 31.43586  
2002-09-30 09:25:31 51°10.096 2°38.454 16.127746 3.999179 31.322653  
2002-09-30 09:25:37 51°10.078 2°38.431 16.129415 4.010777 31.423892  
2002-09-30 09:25:42 51°10.063 2°38.412 16.125949 4.01162 31.431843  
2002-09-30 09:25:47 51°10.048 2°38.391 16.197671 4.011831 31.431925  
2002-09-30 09:25:52 51°10.034 2°38.372 16.126976 4.012464 31.435688  
2002-09-30 09:25:57 51°10.021 2°38.353 16.127403 4.013413 31.443973  
2002-09-30 09:26:02 51°10.008 2°38.335 16.127403 4.013413 31.443973  
2002-09-30 09:26:06 51°9.999 2°38.321 16.018331 4.011515 31.42799  
2002-09-30 09:26:12 51°9.986 2°38.302 16.328134 4.012253 31.43326  
2002-09-30 09:26:17 51°9.975 2°38.287 16.285243 4.012991 31.437944  
2002-09-30 09:26:21 51°9.967 2°38.276 16.243265 4.012885 31.43761  
2002-09-30 09:26:27 51°9.956 2°38.262 16.166887 4.012147 31.43234  
2002-09-30 09:26:31 51°9.948 2°38.253 16.166887 4.012147 31.43234  
2002-09-30 09:26:37 51°9.937 2°38.241 16.055051 4.010461 31.418785  
2002-09-30 09:26:42 51°9.928 2°38.232 16.187967 4.01162 31.43067  
2002-09-30 09:26:47 51°9.92 2°38.225 16.116277 4.011199 31.431094  
2002-09-30 09:26:52 51°9.912 2°38.218 16.149137 4.010672 31.431185  
2002-09-30 09:26:57 51°9.903 2°38.212 16.215365 4.01025 31.43337  
2002-09-30 09:27:02 51°9.896 2°38.207 16.215365 4.01025 31.43337  
2002-09-30 09:27:07 51°9.888 2°38.202 16.246768 4.008036 31.417551  
2002-09-30 09:27:12 51°9.881 2°38.198 16.210408 4.008563 31.426851  
2002-09-30 09:27:17 51°9.874 2°38.194 16.279138 4.007931 31.426608  
2002-09-30 09:27:21 51°9.868 2°38.192 16.066358 4.007087 31.420999  
2002-09-30 09:27:27 51°9.86 2°38.188 16.095132 4.0054 31.410367  
2002-09-30 09:27:32 51°9.854 2°38.185 16.095132 4.0054 31.410367  
2002-09-30 09:27:37 51°9.848 2°38.182 16.090252 4.006666 31.424947  
2002-09-30 09:27:42 51°9.842 2°38.178 16.087726 4.005717 31.417828  
2002-09-30 09:27:46 51°9.838 2°38.176 16.010102 4.005401 31.417412  
2002-09-30 09:27:52 51°9.832 2°38.172 16.185573 4.00519 31.417918  
2002-09-30 09:27:57 51°9.827 2°38.169 16.212374 4.004873 31.415741  
2002-09-30 09:28:01 51°9.823 2°38.166 16.212374 4.004873 31.415741  
2002-09-30 09:28:07 51°9.818 2°38.162 16.212075 4.004241 31.413147  
2002-09-30 09:28:13 51°9.812 2°38.158 16.168726 4.003819 31.41181  
2002-09-30 09:28:17 51°9.809 2°38.155 16.239762 4.003187 31.410978  
2002-09-30 09:28:22 51°9.805 2°38.151 16.094191 4.002132 31.404108  
2002-09-30 09:28:27 51°9.801 2°38.148 16.094191 4.002132 31.404108  
2002-09-30 09:28:31 51°9.798 2°38.145 16.162781 4.002027 31.405536  
2002-09-30 09:28:37 51°9.794 2°38.141 16.088925 4.001816 31.406629  
2002-09-30 09:28:42 51°9.791 2°38.137 16.084772 3.999286 31.388611  
2002-09-30 09:28:47 51°9.788 2°38.134 16.189506 4.00034 31.40077  
2002-09-30 09:28:53 51°9.784 2°38.129 16.289085 3.998443 31.388282  
2002-09-30 09:28:57 51°9.782 2°38.127 16.289085 3.998443 31.388282  
2002-09-30 09:29:02 51°9.779 2°38.123 16.220536 3.996123 31.367993  
2002-09-30 09:29:07 51°9.776 2°38.119 16.079291 3.998232 31.389962  
2002-09-30 09:29:11 51°9.774 2°38.116 16.146956 3.995174 31.365564  
2002-09-30 09:29:15 51°9.772 2°38.113 16.182836 3.995069 31.366403  
2002-09-30 09:29:22 51°9.768 2°38.108 16.147212 3.994436 31.364979  
2002-09-30 09:29:27 51°9.766 2°38.105 16.147212 3.994436 31.364979  
2002-09-30 09:29:32 51°9.764 2°38.101 16.180528 3.994858 31.368081  
2002-09-30 09:29:35 51°9.762 2°38.099 16.215109 3.994647 31.367998  
2002-09-30 09:29:42 51°9.759 2°38.094 16.039286 3.994331 31.366405  
2002-09-30 09:29:47 51°9.757 2°38.09 16.182452 3.993698 31.363219  
2002-09-30 09:29:51 51°9.755 2°38.087 16.10776 3.994753 31.372445  
2002-09-30 09:29:57 51°9.753 2°38.083 16.102795 3.994226 31.36607  
2002-09-30 09:30:02 51°9.751 2°38.079 16.102795 3.994226 31.36607  
2002-09-30 09:30:07 51°9.749 2°38.075 15.892985 3.993804 31.364142  
2002-09-30 09:30:12 51°9.747 2°38.072 15.966024 3.992222 31.350891  
2002-09-30 09:30:15 51°9.746 2°38.069 16.171463 3.994542 31.371775  
2002-09-30 09:30:23 51°9.743 2°38.064 15.960663 3.991484 31.345607  
2002-09-30 09:30:27 51°9.741 2°38.061 16.032044 3.992855 31.360537  
2002-09-30 09:30:30 51°9.74 2°38.058 16.032044 3.992855 31.360537  
2002-09-30 09:30:37 51°9.738 2°38.053 16.101511 3.993171 31.365067  
2002-09-30 09:30:42 51°9.737 2°38.05 15.995141 3.993699 31.369093  
2002-09-30 09:30:46 51°9.735 2°38.047 15.92591 3.993488 31.367835  
2002-09-30 09:30:52 51°9.734 2°38.043 16.064988 3.993171 31.36448  
2002-09-30 09:30:57 51°9.732 2°38.039 16.03063 3.990641 31.344097  
2002-09-30 09:31:02 51°9.731 2°38.035 16.03063 3.990641 31.344097  
2002-09-30 09:31:07 51°9.73 2°38.031 16.032473 3.992328 31.35886  
2002-09-30 09:31:12 51°9.729 2°38.028 16.134592 3.991168 31.350472  
2002-09-30 09:31:17 51°9.728 2°38.024 15.996856 3.991168 31.350472  
2002-09-30 09:31:22 51°9.727 2°38.02 15.996985 3.993488 31.370186  
2002-09-30 09:31:27 51°9.726 2°38.017 15.961864 3.991168 31.351059  
2002-09-30 09:31:31 51°9.725 2°38.014 15.961864 3.991168 31.351059  
2002-09-30 09:31:37 51°9.724 2°38.01 15.997799 3.991695 31.355673  
2002-09-30 09:31:42 51°9.723 2°38.006 15.930416 3.991379 31.352317  
2002-09-30 09:31:47 51°9.722 2°38.003 15.963923 3.990536 31.344935  
2002-09-30 09:31:52 51°9.721 2°37.999 16.143491 3.992855 31.364061  
2002-09-30 09:31:57 51°9.721 2°37.996 16.143491 3.992855 31.364061  
2002-09-30 09:32:02 51°9.72 2°37.992 16.003286 3.991379 31.352317  
2002-09-30 09:32:07 51°9.719 2°37.989 15.969884 3.990641 31.346445  
2002-09-30 09:32:12 51°9.718 2°37.986 15.930802 3.990536 31.344935  
2002-09-30 09:32:17 51°9.717 2°37.982 16.182537 3.991906 31.355169  
2002-09-30 09:32:21 51°9.717 2°37.979 15.899468 3.991379 31.348794  
2002-09-30 09:32:27 51°9.716 2°37.975 15.899468 3.991379 31.348794  
2002-09-30 09:32:31 51°9.715 2°37.973 16.142378 3.991274 31.346697  
2002-09-30 09:32:35 51°9.715 2°37.97 16.035644 3.993171 31.363305  
2002-09-30 09:32:42 51°9.714 2°37.965 16.109601 3.992539 31.358943  
2002-09-30 09:32:47 51°9.713 2°37.962 16.06987 3.991801 31.35131  
2002-09-30 09:32:52 51°9.713 2°37.959 16.106262 3.991695 31.350975  
2002-09-30 09:32:57 51°9.712 2°37.955 16.106262 3.991695 31.350975  
2002-09-30 09:33:02 51°9.712 2°37.952 16.071497 3.991906 31.35282  
2002-09-30 09:33:07 51°9.711 2°37.949 16.103908 3.992012 31.353743  
2002-09-30 09:33:12 51°9.711 2°37.946 15.9996 3.992328 31.356511  
2002-09-30 09:33:14 51°9.71 2°37.944 16.072225 3.990957 31.345691  
2002-09-30 09:33:22 51°9.709 2°37.939 16.000757 3.992433 31.358608  
2002-09-30 09:33:27 51°9.709 2°37.936 16.140068 3.990641 31.342336  
2002-09-30 09:33:32 51°9.708 2°37.932 16.140068 3.990641 31.342336  
2002-09-30 09:33:37 51°9.708 2°37.929 16.139341 3.99159 31.351227  
2002-09-30 09:33:42 51°9.707 2°37.926 16.034187 3.991801 31.353659  
2002-09-30 09:33:46 51°9.707 2°37.924 16.033587 3.991168 31.348123  
2002-09-30 09:33:52 51°9.706 2°37.92 16.139469 3.991274 31.349046  
2002-09-30 09:33:57 51°9.706 2°37.917 16.070555 3.992433 31.357433  
2002-09-30 09:34:02 51°9.705 2°37.913 16.070555 3.992433 31.357433  
2002-09-30 09:34:08 51°9.705 2°37.91 16.173857 3.990536 31.342  
2002-09-30 09:34:11 51°9.705 2°37.908 16.173643 3.991168 31.347536  
2002-09-30 09:34:18 51°9.704 2°37.904 16.175696 3.991063 31.3472  
2002-09-30 09:34:22 51°9.704 2°37.901 16.071369 3.991379 31.348794  
2002-09-30 09:34:27 51°9.703 2°37.898 16.105834 3.99159 31.351814  
2002-09-30 09:34:33 51°9.703 2°37.894 16.105834 3.99159 31.351814  
2002-09-30 09:34:37 51°9.703 2°37.892 16.105834 3.992223 31.356763  
2002-09-30 09:34:42 51°9.702 2°37.889 15.995527 3.992223 31.356763  
2002-09-30 09:34:47 51°9.702 2°37.886 16.064688 3.99043 31.341077  
2002-09-30 09:34:52 51°9.702 2°37.883 15.964394 3.991906 31.353995  
2002-09-30 09:34:57 51°9.701 2°37.88 16.100055 3.991695 31.352149  
2002-09-30 09:35:02 51°9.701 2°37.877 16.100055 3.991695 31.352149  
2002-09-30 09:35:07 51°9.701 2°37.874 16.068971 3.991485 31.350304  
2002-09-30 09:35:11 51°9.7 2°37.872 16.069656 3.992433 31.356846  
2002-09-30 09:35:17 51°9.7 2°37.868 16.032087 3.991801 31.353659  
2002-09-30 09:35:21 51°9.7 2°37.866 16.133693 3.991168 31.350472  
2002-09-30 09:35:27 51°9.699 2°37.862 15.960534 3.99159 31.354163  
2002-09-30 09:35:31 51°9.699 2°37.86 15.960534 3.99159 31.354163  
2002-09-30 09:35:37 51°9.699 2°37.856 16.065416 3.990536 31.343174  
2002-09-30 09:35:42 51°9.699 2°37.854 16.206348 3.991801 31.354834  
2002-09-30 09:35:47 51°9.698 2°37.851 16.140239 3.991801 31.357183  
2002-09-30 09:35:53 51°9.698 2°37.847 16.101254 3.992223 31.360874  
2002-09-30 09:35:57 51°9.698 2°37.845 16.101254 3.992223 31.360874  
2002-09-30 09:36:01 51°9.698 2°37.842 16.104721 3.992117 31.359952  
2002-09-30 09:36:07 51°9.697 2°37.839 16.06957 3.990641 31.34762  
2002-09-30 09:36:12 51°9.697 2°37.836 16.240104 3.990852 31.347704  
2002-09-30 09:36:18 51°9.697 2°37.833 16.063617 3.991485 31.352653  
2002-09-30 09:36:23 51°9.696 2°37.83 16.239933 3.991063 31.348962  
2002-09-30 09:36:28 51°9.696 2°37.827 16.239933 3.991063 31.348962  
2002-09-30 09:36:31 51°9.696 2°37.825 16.203612 3.990641 31.347032  
2002-09-30 09:36:37 51°9.696 2°37.822 15.959204 3.992539 31.361293  
2002-09-30 09:36:42 51°9.696 2°37.819 16.135619 3.99159 31.353576  
2002-09-30 09:36:46 51°9.696 2°37.816 16.274783 3.991801 31.357183  
2002-09-30 09:36:50 51°9.695 2°37.814 16.032901 3.99159 31.353576  
2002-09-30 09:36:57 51°9.695 2°37.81 16.068842 3.991379 31.353492  
2002-09-30 09:37:02 51°9.695 2°37.807 16.068842 3.991379 31.353492